sensor_id;sensor_type;location;lat;lon;timestamp;P1;durP1;ratioP1;P2;durP2;ratioP2
16660;SDS011;8444;52.012;5.048;2023-09-19T00:02:12;5.72;;;1.75;;
16660;SDS011;8444;52.012;5.048;2023-09-19T00:04:37;5.30;;;1.63;;
16660;SDS011;8444;52.012;5.048;2023-09-19T00:07:04;7.45;;;2.00;;
16660;SDS011;8444;52.012;5.048;2023-09-19T00:09:29;4.07;;;1.67;;
16660;SDS011;8444;52.012;5.048;2023-09-19T00:11:55;6.13;;;1.63;;
16660;SDS011;8444;52.012;5.048;2023-09-19T00:14:20;9.88;;;2.38;;
16660;SDS011;8444;52.012;5.048;2023-09-19T00:16:49;4.43;;;1.77;;
16660;SDS011;8444;52.012;5.048;2023-09-19T00:19:14;5.32;;;1.73;;
16660;SDS011;8444;52.012;5.048;2023-09-19T00:21:41;3.95;;;1.77;;
16660;SDS011;8444;52.012;5.048;2023-09-19T00:24:06;3.65;;;1.65;;
16660;SDS011;8444;52.012;5.048;2023-09-19T00:26:33;6.50;;;2.13;;
16660;SDS011;8444;52.012;5.048;2023-09-19T00:28:59;4.60;;;1.88;;
16660;SDS011;8444;52.012;5.048;2023-09-19T00:31:33;4.05;;;1.80;;
16660;SDS011;8444;52.012;5.048;2023-09-19T00:33:58;4.40;;;1.80;;
16660;SDS011;8444;52.012;5.048;2023-09-19T00:36:25;5.25;;;1.75;;
16660;SDS011;8444;52.012;5.048;2023-09-19T00:38:50;7.25;;;2.22;;
16660;SDS011;8444;52.012;5.048;2023-09-19T00:41:15;10.50;;;2.08;;
16660;SDS011;8444;52.012;5.048;2023-09-19T00:43:40;10.23;;;1.80;;
16660;SDS011;8444;52.012;5.048;2023-09-19T00:46:06;6.13;;;2.20;;
16660;SDS011;8444;52.012;5.048;2023-09-19T00:48:31;6.28;;;1.95;;
16660;SDS011;8444;52.012;5.048;2023-09-19T00:51:02;6.35;;;1.70;;
16660;SDS011;8444;52.012;5.048;2023-09-19T00:53:27;8.63;;;2.33;;
16660;SDS011;8444;52.012;5.048;2023-09-19T00:55:53;5.45;;;1.33;;
16660;SDS011;8444;52.012;5.048;2023-09-19T00:58:18;3.80;;;1.25;;
16660;SDS011;8444;52.012;5.048;2023-09-19T01:00:44;5.57;;;1.67;;
16660;SDS011;8444;52.012;5.048;2023-09-19T01:03:10;3.10;;;1.55;;
16660;SDS011;8444;52.012;5.048;2023-09-19T01:05:35;3.85;;;1.83;;
16660;SDS011;8444;52.012;5.048;2023-09-19T01:08:01;6.43;;;1.67;;
16660;SDS011;8444;52.012;5.048;2023-09-19T01:10:26;5.78;;;1.58;;
16660;SDS011;8444;52.012;5.048;2023-09-19T01:12:55;4.97;;;1.73;;
16660;SDS011;8444;52.012;5.048;2023-09-19T01:15:40;6.60;;;1.63;;
16660;SDS011;8444;52.012;5.048;2023-09-19T01:28:51;13.40;;;2.50;;
16660;SDS011;8444;52.012;5.048;2023-09-19T01:31:19;2.00;;;1.50;;
16660;SDS011;8444;52.012;5.048;2023-09-19T01:33:58;2.67;;;1.48;;
16660;SDS011;8444;52.012;5.048;2023-09-19T01:36:29;7.75;;;1.58;;
16660;SDS011;8444;52.012;5.048;2023-09-19T01:38:54;4.63;;;1.52;;
16660;SDS011;8444;52.012;5.048;2023-09-19T01:41:24;4.00;;;1.27;;
16660;SDS011;8444;52.012;5.048;2023-09-19T01:43:50;3.20;;;1.38;;
16660;SDS011;8444;52.012;5.048;2023-09-19T01:46:24;3.20;;;1.67;;
16660;SDS011;8444;52.012;5.048;2023-09-19T01:51:34;6.68;;;1.50;;
16660;SDS011;8444;52.012;5.048;2023-09-19T01:54:03;8.35;;;1.83;;
16660;SDS011;8444;52.012;5.048;2023-09-19T01:59:02;5.22;;;1.42;;
16660;SDS011;8444;52.012;5.048;2023-09-19T02:01:29;5.97;;;1.70;;
16660;SDS011;8444;52.012;5.048;2023-09-19T02:03:54;4.50;;;1.42;;
16660;SDS011;8444;52.012;5.048;2023-09-19T02:06:21;5.45;;;2.15;;
16660;SDS011;8444;52.012;5.048;2023-09-19T02:08:46;9.70;;;2.20;;
16660;SDS011;8444;52.012;5.048;2023-09-19T02:11:12;6.97;;;2.08;;
16660;SDS011;8444;52.012;5.048;2023-09-19T02:13:38;10.18;;;2.20;;
16660;SDS011;8444;52.012;5.048;2023-09-19T02:16:03;14.27;;;2.72;;
16660;SDS011;8444;52.012;5.048;2023-09-19T02:18:29;12.73;;;3.15;;
16660;SDS011;8444;52.012;5.048;2023-09-19T02:20:55;7.25;;;2.13;;
16660;SDS011;8444;52.012;5.048;2023-09-19T02:23:21;6.30;;;2.33;;
16660;SDS011;8444;52.012;5.048;2023-09-19T02:25:56;8.55;;;1.85;;
16660;SDS011;8444;52.012;5.048;2023-09-19T02:28:28;11.13;;;2.08;;
16660;SDS011;8444;52.012;5.048;2023-09-19T02:30:57;12.27;;;2.28;;
16660;SDS011;8444;52.012;5.048;2023-09-19T02:33:22;9.82;;;2.20;;
16660;SDS011;8444;52.012;5.048;2023-09-19T02:35:48;6.60;;;2.25;;
16660;SDS011;8444;52.012;5.048;2023-09-19T02:38:13;8.82;;;2.25;;
16660;SDS011;8444;52.012;5.048;2023-09-19T02:40:39;18.50;;;2.83;;
16660;SDS011;8444;52.012;5.048;2023-09-19T02:43:05;8.88;;;2.17;;
16660;SDS011;8444;52.012;5.048;2023-09-19T02:45:30;10.57;;;2.72;;
16660;SDS011;8444;52.012;5.048;2023-09-19T02:47:56;4.53;;;2.53;;
16660;SDS011;8444;52.012;5.048;2023-09-19T02:50:22;10.45;;;2.67;;
16660;SDS011;8444;52.012;5.048;2023-09-19T02:52:47;11.73;;;2.80;;
16660;SDS011;8444;52.012;5.048;2023-09-19T02:55:16;6.85;;;2.13;;
16660;SDS011;8444;52.012;5.048;2023-09-19T02:57:49;14.27;;;3.17;;
16660;SDS011;8444;52.012;5.048;2023-09-19T03:00:15;9.25;;;2.03;;
16660;SDS011;8444;52.012;5.048;2023-09-19T03:02:40;9.88;;;2.80;;
16660;SDS011;8444;52.012;5.048;2023-09-19T03:05:06;8.50;;;1.88;;
16660;SDS011;8444;52.012;5.048;2023-09-19T03:07:32;6.85;;;1.85;;
16660;SDS011;8444;52.012;5.048;2023-09-19T03:09:57;12.38;;;2.60;;
16660;SDS011;8444;52.012;5.048;2023-09-19T03:12:22;10.02;;;2.65;;
16660;SDS011;8444;52.012;5.048;2023-09-19T03:14:48;10.55;;;2.50;;
16660;SDS011;8444;52.012;5.048;2023-09-19T03:17:13;9.82;;;2.33;;
16660;SDS011;8444;52.012;5.048;2023-09-19T03:19:39;10.70;;;2.72;;
16660;SDS011;8444;52.012;5.048;2023-09-19T03:22:05;6.38;;;2.40;;
16660;SDS011;8444;52.012;5.048;2023-09-19T03:24:30;10.52;;;3.05;;
16660;SDS011;8444;52.012;5.048;2023-09-19T03:26:56;6.05;;;2.60;;
16660;SDS011;8444;52.012;5.048;2023-09-19T03:29:22;7.43;;;2.47;;
16660;SDS011;8444;52.012;5.048;2023-09-19T03:31:47;9.85;;;2.35;;
16660;SDS011;8444;52.012;5.048;2023-09-19T03:34:12;10.15;;;2.17;;
16660;SDS011;8444;52.012;5.048;2023-09-19T03:36:37;7.93;;;2.90;;
16660;SDS011;8444;52.012;5.048;2023-09-19T03:39:03;12.23;;;2.40;;
16660;SDS011;8444;52.012;5.048;2023-09-19T03:41:30;8.20;;;2.65;;
16660;SDS011;8444;52.012;5.048;2023-09-19T03:43:56;6.93;;;1.85;;
16660;SDS011;8444;52.012;5.048;2023-09-19T03:46:21;5.47;;;1.65;;
16660;SDS011;8444;52.012;5.048;2023-09-19T03:48:46;7.85;;;1.63;;
16660;SDS011;8444;52.012;5.048;2023-09-19T03:51:11;8.73;;;2.67;;
16660;SDS011;8444;52.012;5.048;2023-09-19T03:53:37;6.78;;;2.13;;
16660;SDS011;8444;52.012;5.048;2023-09-19T03:56:02;13.38;;;2.42;;
16660;SDS011;8444;52.012;5.048;2023-09-19T03:58:27;7.40;;;1.60;;
16660;SDS011;8444;52.012;5.048;2023-09-19T04:00:56;7.55;;;1.83;;
16660;SDS011;8444;52.012;5.048;2023-09-19T04:03:21;7.80;;;2.30;;
16660;SDS011;8444;52.012;5.048;2023-09-19T04:05:46;9.25;;;2.65;;
16660;SDS011;8444;52.012;5.048;2023-09-19T04:08:12;7.93;;;2.33;;
16660;SDS011;8444;52.012;5.048;2023-09-19T04:10:38;11.15;;;2.10;;
16660;SDS011;8444;52.012;5.048;2023-09-19T04:13:04;6.70;;;2.15;;
16660;SDS011;8444;52.012;5.048;2023-09-19T04:15:29;4.57;;;1.33;;
16660;SDS011;8444;52.012;5.048;2023-09-19T04:17:54;8.60;;;1.80;;
16660;SDS011;8444;52.012;5.048;2023-09-19T04:20:20;6.13;;;2.13;;
16660;SDS011;8444;52.012;5.048;2023-09-19T04:22:47;11.13;;;2.05;;
16660;SDS011;8444;52.012;5.048;2023-09-19T04:25:12;6.82;;;2.03;;
16660;SDS011;8444;52.012;5.048;2023-09-19T04:27:38;7.38;;;2.28;;
16660;SDS011;8444;52.012;5.048;2023-09-19T04:30:03;7.43;;;1.70;;
16660;SDS011;8444;52.012;5.048;2023-09-19T04:32:30;3.67;;;1.58;;
16660;SDS011;8444;52.012;5.048;2023-09-19T04:34:57;6.50;;;2.28;;
16660;SDS011;8444;52.012;5.048;2023-09-19T04:37:25;4.50;;;1.42;;
16660;SDS011;8444;52.012;5.048;2023-09-19T04:39:50;9.23;;;2.20;;
16660;SDS011;8444;52.012;5.048;2023-09-19T04:42:15;6.45;;;2.22;;
16660;SDS011;8444;52.012;5.048;2023-09-19T04:44:40;7.75;;;2.33;;
16660;SDS011;8444;52.012;5.048;2023-09-19T04:47:05;7.40;;;2.00;;
16660;SDS011;8444;52.012;5.048;2023-09-19T04:49:31;10.60;;;2.03;;
16660;SDS011;8444;52.012;5.048;2023-09-19T04:51:56;10.75;;;2.05;;
16660;SDS011;8444;52.012;5.048;2023-09-19T04:54:21;7.95;;;1.92;;
16660;SDS011;8444;52.012;5.048;2023-09-19T04:56:47;8.85;;;2.90;;
16660;SDS011;8444;52.012;5.048;2023-09-19T04:59:12;7.03;;;2.30;;
16660;SDS011;8444;52.012;5.048;2023-09-19T05:01:37;8.68;;;2.08;;
16660;SDS011;8444;52.012;5.048;2023-09-19T05:04:03;10.82;;;2.28;;
16660;SDS011;8444;52.012;5.048;2023-09-19T05:06:29;7.38;;;2.00;;
16660;SDS011;8444;52.012;5.048;2023-09-19T05:08:55;11.63;;;2.22;;
16660;SDS011;8444;52.012;5.048;2023-09-19T05:11:20;7.03;;;1.52;;
16660;SDS011;8444;52.012;5.048;2023-09-19T05:13:49;9.45;;;2.08;;
16660;SDS011;8444;52.012;5.048;2023-09-19T05:16:18;9.93;;;2.00;;
16660;SDS011;8444;52.012;5.048;2023-09-19T05:18:43;8.40;;;2.55;;
16660;SDS011;8444;52.012;5.048;2023-09-19T05:21:08;15.15;;;2.72;;
16660;SDS011;8444;52.012;5.048;2023-09-19T05:23:34;6.97;;;2.33;;
16660;SDS011;8444;52.012;5.048;2023-09-19T05:25:59;6.55;;;1.90;;
16660;SDS011;8444;52.012;5.048;2023-09-19T05:28:25;11.45;;;2.22;;
16660;SDS011;8444;52.012;5.048;2023-09-19T05:30:50;7.53;;;1.92;;
16660;SDS011;8444;52.012;5.048;2023-09-19T05:33:16;9.05;;;3.05;;
16660;SDS011;8444;52.012;5.048;2023-09-19T05:35:43;5.30;;;1.75;;
16660;SDS011;8444;52.012;5.048;2023-09-19T05:38:08;13.20;;;2.35;;
16660;SDS011;8444;52.012;5.048;2023-09-19T05:40:34;8.15;;;2.20;;
16660;SDS011;8444;52.012;5.048;2023-09-19T05:43:00;5.35;;;2.60;;
16660;SDS011;8444;52.012;5.048;2023-09-19T05:45:25;13.63;;;2.97;;
16660;SDS011;8444;52.012;5.048;2023-09-19T05:47:51;7.07;;;2.28;;
16660;SDS011;8444;52.012;5.048;2023-09-19T05:50:20;11.27;;;2.65;;
16660;SDS011;8444;52.012;5.048;2023-09-19T05:52:51;8.43;;;2.78;;
16660;SDS011;8444;52.012;5.048;2023-09-19T05:55:17;10.90;;;2.25;;
16660;SDS011;8444;52.012;5.048;2023-09-19T05:57:42;10.68;;;2.50;;
16660;SDS011;8444;52.012;5.048;2023-09-19T06:00:07;9.70;;;1.80;;
16660;SDS011;8444;52.012;5.048;2023-09-19T06:02:35;8.27;;;2.17;;
16660;SDS011;8444;52.012;5.048;2023-09-19T06:05:00;9.32;;;2.50;;
16660;SDS011;8444;52.012;5.048;2023-09-19T06:07:26;10.90;;;1.95;;
16660;SDS011;8444;52.012;5.048;2023-09-19T06:09:53;11.85;;;2.35;;
16660;SDS011;8444;52.012;5.048;2023-09-19T06:12:21;10.73;;;2.15;;
16660;SDS011;8444;52.012;5.048;2023-09-19T06:14:46;15.02;;;3.33;;
16660;SDS011;8444;52.012;5.048;2023-09-19T06:17:11;9.23;;;2.42;;
16660;SDS011;8444;52.012;5.048;2023-09-19T06:19:36;11.63;;;2.70;;
16660;SDS011;8444;52.012;5.048;2023-09-19T06:22:02;5.80;;;1.80;;
16660;SDS011;8444;52.012;5.048;2023-09-19T06:24:27;6.80;;;2.20;;
16660;SDS011;8444;52.012;5.048;2023-09-19T06:26:53;9.75;;;2.30;;
16660;SDS011;8444;52.012;5.048;2023-09-19T06:29:18;7.85;;;1.95;;
16660;SDS011;8444;52.012;5.048;2023-09-19T06:31:45;7.80;;;1.77;;
16660;SDS011;8444;52.012;5.048;2023-09-19T06:34:12;9.05;;;2.83;;
16660;SDS011;8444;52.012;5.048;2023-09-19T06:36:39;11.30;;;1.95;;
16660;SDS011;8444;52.012;5.048;2023-09-19T06:39:04;15.40;;;3.20;;
16660;SDS011;8444;52.012;5.048;2023-09-19T06:41:31;8.50;;;1.80;;
16660;SDS011;8444;52.012;5.048;2023-09-19T06:43:56;9.68;;;2.05;;
16660;SDS011;8444;52.012;5.048;2023-09-19T06:46:22;8.80;;;2.22;;
16660;SDS011;8444;52.012;5.048;2023-09-19T06:48:48;12.07;;;2.72;;
16660;SDS011;8444;52.012;5.048;2023-09-19T06:51:14;14.45;;;2.80;;
16660;SDS011;8444;52.012;5.048;2023-09-19T06:53:40;5.47;;;2.10;;
16660;SDS011;8444;52.012;5.048;2023-09-19T06:56:06;8.55;;;2.13;;
16660;SDS011;8444;52.012;5.048;2023-09-19T06:58:31;11.52;;;2.22;;
16660;SDS011;8444;52.012;5.048;2023-09-19T07:00:56;12.40;;;2.67;;
16660;SDS011;8444;52.012;5.048;2023-09-19T07:03:22;7.45;;;2.25;;
16660;SDS011;8444;52.012;5.048;2023-09-19T07:05:50;12.23;;;2.15;;
16660;SDS011;8444;52.012;5.048;2023-09-19T07:08:15;9.13;;;2.40;;
16660;SDS011;8444;52.012;5.048;2023-09-19T07:10:41;10.88;;;2.50;;
16660;SDS011;8444;52.012;5.048;2023-09-19T07:13:07;5.70;;;2.17;;
16660;SDS011;8444;52.012;5.048;2023-09-19T07:15:36;11.48;;;2.08;;
16660;SDS011;8444;52.012;5.048;2023-09-19T07:18:04;6.93;;;1.98;;
16660;SDS011;8444;52.012;5.048;2023-09-19T07:20:29;9.23;;;2.17;;
16660;SDS011;8444;52.012;5.048;2023-09-19T07:22:57;12.30;;;2.30;;
16660;SDS011;8444;52.012;5.048;2023-09-19T07:25:24;11.38;;;2.78;;
16660;SDS011;8444;52.012;5.048;2023-09-19T07:27:49;11.45;;;2.55;;
16660;SDS011;8444;52.012;5.048;2023-09-19T07:30:16;10.45;;;2.15;;
16660;SDS011;8444;52.012;5.048;2023-09-19T07:32:41;12.35;;;3.42;;
16660;SDS011;8444;52.012;5.048;2023-09-19T07:35:07;9.30;;;2.13;;
16660;SDS011;8444;52.012;5.048;2023-09-19T07:37:32;9.85;;;2.90;;
16660;SDS011;8444;52.012;5.048;2023-09-19T07:40:07;10.85;;;2.05;;
16660;SDS011;8444;52.012;5.048;2023-09-19T07:42:34;8.50;;;2.67;;
16660;SDS011;8444;52.012;5.048;2023-09-19T07:45:00;10.88;;;2.15;;
16660;SDS011;8444;52.012;5.048;2023-09-19T07:47:25;10.20;;;3.50;;
16660;SDS011;8444;52.012;5.048;2023-09-19T07:49:51;8.73;;;2.10;;
16660;SDS011;8444;52.012;5.048;2023-09-19T07:52:16;10.55;;;2.10;;
16660;SDS011;8444;52.012;5.048;2023-09-19T07:54:41;8.18;;;1.98;;
16660;SDS011;8444;52.012;5.048;2023-09-19T07:57:09;6.72;;;2.25;;
16660;SDS011;8444;52.012;5.048;2023-09-19T07:59:34;7.63;;;2.10;;
16660;SDS011;8444;52.012;5.048;2023-09-19T08:01:59;8.35;;;2.13;;
16660;SDS011;8444;52.012;5.048;2023-09-19T08:04:25;14.05;;;2.33;;
16660;SDS011;8444;52.012;5.048;2023-09-19T08:06:51;8.35;;;2.20;;
16660;SDS011;8444;52.012;5.048;2023-09-19T08:09:17;12.68;;;2.60;;
16660;SDS011;8444;52.012;5.048;2023-09-19T08:11:45;12.43;;;3.00;;
16660;SDS011;8444;52.012;5.048;2023-09-19T08:14:11;6.18;;;2.03;;
16660;SDS011;8444;52.012;5.048;2023-09-19T08:16:39;7.68;;;2.28;;
16660;SDS011;8444;52.012;5.048;2023-09-19T08:19:04;9.52;;;2.53;;
16660;SDS011;8444;52.012;5.048;2023-09-19T08:21:30;8.75;;;2.50;;
16660;SDS011;8444;52.012;5.048;2023-09-19T08:23:57;16.70;;;2.83;;
16660;SDS011;8444;52.012;5.048;2023-09-19T08:26:22;8.27;;;2.38;;
16660;SDS011;8444;52.012;5.048;2023-09-19T08:28:49;9.43;;;2.15;;
16660;SDS011;8444;52.012;5.048;2023-09-19T08:31:16;7.03;;;2.42;;
16660;SDS011;8444;52.012;5.048;2023-09-19T08:33:43;10.75;;;2.17;;
16660;SDS011;8444;52.012;5.048;2023-09-19T08:36:10;12.98;;;2.22;;
16660;SDS011;8444;52.012;5.048;2023-09-19T08:38:39;6.63;;;2.08;;
16660;SDS011;8444;52.012;5.048;2023-09-19T08:41:07;6.53;;;2.50;;
16660;SDS011;8444;52.012;5.048;2023-09-19T08:43:33;9.02;;;2.03;;
16660;SDS011;8444;52.012;5.048;2023-09-19T08:48:33;10.40;;;2.15;;
16660;SDS011;8444;52.012;5.048;2023-09-19T08:53:34;13.95;;;2.33;;
16660;SDS011;8444;52.012;5.048;2023-09-19T08:56:03;9.32;;;2.00;;
16660;SDS011;8444;52.012;5.048;2023-09-19T08:58:31;8.27;;;1.83;;
16660;SDS011;8444;52.012;5.048;2023-09-19T09:00:58;10.82;;;2.22;;
16660;SDS011;8444;52.012;5.048;2023-09-19T09:03:25;9.90;;;2.33;;
16660;SDS011;8444;52.012;5.048;2023-09-19T09:05:51;9.60;;;2.60;;
16660;SDS011;8444;52.012;5.048;2023-09-19T09:08:16;13.68;;;2.80;;
16660;SDS011;8444;52.012;5.048;2023-09-19T09:10:44;13.88;;;2.45;;
16660;SDS011;8444;52.012;5.048;2023-09-19T09:13:09;9.07;;;1.98;;
16660;SDS011;8444;52.012;5.048;2023-09-19T09:15:35;11.95;;;2.15;;
16660;SDS011;8444;52.012;5.048;2023-09-19T09:18:00;6.47;;;2.30;;
16660;SDS011;8444;52.012;5.048;2023-09-19T09:20:27;9.75;;;2.50;;
16660;SDS011;8444;52.012;5.048;2023-09-19T09:22:56;7.28;;;2.15;;
16660;SDS011;8444;52.012;5.048;2023-09-19T09:25:46;11.07;;;1.92;;
16660;SDS011;8444;52.012;5.048;2023-09-19T09:28:10;11.07;;;2.05;;
16660;SDS011;8444;52.012;5.048;2023-09-19T09:30:36;13.05;;;2.30;;
16660;SDS011;8444;52.012;5.048;2023-09-19T09:33:08;15.38;;;2.45;;
16660;SDS011;8444;52.012;5.048;2023-09-19T09:35:35;13.68;;;2.05;;
16660;SDS011;8444;52.012;5.048;2023-09-19T09:38:01;11.45;;;2.60;;
16660;SDS011;8444;52.012;5.048;2023-09-19T09:40:45;8.13;;;1.85;;
16660;SDS011;8444;52.012;5.048;2023-09-19T09:43:24;12.73;;;2.10;;
16660;SDS011;8444;52.012;5.048;2023-09-19T09:45:53;10.15;;;2.60;;
16660;SDS011;8444;52.012;5.048;2023-09-19T09:48:35;10.68;;;1.65;;
16660;SDS011;8444;52.012;5.048;2023-09-19T09:51:04;11.30;;;2.45;;
16660;SDS011;8444;52.012;5.048;2023-09-19T09:53:32;4.97;;;1.52;;
16660;SDS011;8444;52.012;5.048;2023-09-19T09:58:27;9.60;;;1.92;;
16660;SDS011;8444;52.012;5.048;2023-09-19T10:00:56;7.68;;;1.55;;
16660;SDS011;8444;52.012;5.048;2023-09-19T10:03:45;12.35;;;2.05;;
16660;SDS011;8444;52.012;5.048;2023-09-19T10:06:13;4.93;;;1.80;;
16660;SDS011;8444;52.012;5.048;2023-09-19T10:09:07;6.78;;;2.17;;
16660;SDS011;8444;52.012;5.048;2023-09-19T10:11:35;5.47;;;1.75;;
16660;SDS011;8444;52.012;5.048;2023-09-19T10:14:02;9.45;;;1.88;;
16660;SDS011;8444;52.012;5.048;2023-09-19T10:16:31;9.07;;;1.88;;
16660;SDS011;8444;52.012;5.048;2023-09-19T10:18:57;6.90;;;1.80;;
16660;SDS011;8444;52.012;5.048;2023-09-19T10:21:24;7.35;;;1.80;;
16660;SDS011;8444;52.012;5.048;2023-09-19T10:23:49;5.07;;;1.58;;
16660;SDS011;8444;52.012;5.048;2023-09-19T10:26:17;7.90;;;2.13;;
16660;SDS011;8444;52.012;5.048;2023-09-19T10:28:42;6.68;;;1.88;;
16660;SDS011;8444;52.012;5.048;2023-09-19T10:31:09;11.55;;;1.85;;
16660;SDS011;8444;52.012;5.048;2023-09-19T10:33:39;3.65;;;1.45;;
16660;SDS011;8444;52.012;5.048;2023-09-19T10:36:06;4.80;;;1.15;;
16660;SDS011;8444;52.012;5.048;2023-09-19T10:38:31;3.95;;;1.30;;
16660;SDS011;8444;52.012;5.048;2023-09-19T10:40:58;5.07;;;1.50;;
16660;SDS011;8444;52.012;5.048;2023-09-19T10:43:34;8.02;;;1.75;;
16660;SDS011;8444;52.012;5.048;2023-09-19T10:46:02;3.70;;;0.90;;
16660;SDS011;8444;52.012;5.048;2023-09-19T10:48:30;6.32;;;1.27;;
16660;SDS011;8444;52.012;5.048;2023-09-19T10:54:01;8.63;;;1.88;;
16660;SDS011;8444;52.012;5.048;2023-09-19T11:01:42;7.18;;;1.63;;
16660;SDS011;8444;52.012;5.048;2023-09-19T11:07:09;3.53;;;1.58;;
16660;SDS011;8444;52.012;5.048;2023-09-19T11:12:57;2.70;;;0.98;;
16660;SDS011;8444;52.012;5.048;2023-09-19T11:15:06;6.25;;;1.42;;
16660;SDS011;8444;52.012;5.048;2023-09-19T11:17:39;5.20;;;0.93;;
16660;SDS011;8444;52.012;5.048;2023-09-19T11:30:41;5.70;;;1.33;;
16660;SDS011;8444;52.012;5.048;2023-09-19T11:35:59;3.72;;;1.38;;
16660;SDS011;8444;52.012;5.048;2023-09-19T11:46:25;3.60;;;1.25;;
16660;SDS011;8444;52.012;5.048;2023-09-19T11:48:51;7.43;;;1.17;;
16660;SDS011;8444;52.012;5.048;2023-09-19T11:51:18;3.75;;;0.90;;
16660;SDS011;8444;52.012;5.048;2023-09-19T11:53:53;2.53;;;0.90;;
16660;SDS011;8444;52.012;5.048;2023-09-19T11:56:21;5.93;;;0.90;;
16660;SDS011;8444;52.012;5.048;2023-09-19T11:58:48;4.13;;;0.88;;
16660;SDS011;8444;52.012;5.048;2023-09-19T12:01:14;3.03;;;0.77;;
16660;SDS011;8444;52.012;5.048;2023-09-19T12:03:45;4.95;;;0.88;;
16660;SDS011;8444;52.012;5.048;2023-09-19T12:08:47;6.57;;;1.20;;
16660;SDS011;8444;52.012;5.048;2023-09-19T12:11:13;2.85;;;1.08;;
16660;SDS011;8444;52.012;5.048;2023-09-19T12:13:46;7.38;;;1.73;;
16660;SDS011;8444;52.012;5.048;2023-09-19T12:16:18;5.22;;;1.25;;
16660;SDS011;8444;52.012;5.048;2023-09-19T12:18:47;4.10;;;1.17;;
16660;SDS011;8444;52.012;5.048;2023-09-19T12:21:26;4.95;;;1.10;;
16660;SDS011;8444;52.012;5.048;2023-09-19T12:26:29;3.88;;;1.15;;
16660;SDS011;8444;52.012;5.048;2023-09-19T12:28:56;6.20;;;1.25;;
16660;SDS011;8444;52.012;5.048;2023-09-19T12:31:22;3.58;;;0.80;;
16660;SDS011;8444;52.012;5.048;2023-09-19T12:33:52;5.05;;;0.85;;
16660;SDS011;8444;52.012;5.048;2023-09-19T12:36:21;3.20;;;1.10;;
16660;SDS011;8444;52.012;5.048;2023-09-19T12:38:57;8.90;;;1.40;;
16660;SDS011;8444;52.012;5.048;2023-09-19T12:41:28;2.40;;;0.93;;
16660;SDS011;8444;52.012;5.048;2023-09-19T12:43:53;3.88;;;1.00;;
16660;SDS011;8444;52.012;5.048;2023-09-19T12:46:22;5.22;;;1.30;;
16660;SDS011;8444;52.012;5.048;2023-09-19T12:49:14;5.90;;;1.85;;
16660;SDS011;8444;52.012;5.048;2023-09-19T12:51:37;2.65;;;0.75;;
16660;SDS011;8444;52.012;5.048;2023-09-19T12:54:02;11.07;;;1.85;;
16660;SDS011;8444;52.012;5.048;2023-09-19T12:56:27;4.20;;;1.10;;
16660;SDS011;8444;52.012;5.048;2023-09-19T12:58:54;3.30;;;1.42;;
16660;SDS011;8444;52.012;5.048;2023-09-19T13:01:20;3.42;;;1.05;;
16660;SDS011;8444;52.012;5.048;2023-09-19T13:04:10;3.28;;;0.82;;
16660;SDS011;8444;52.012;5.048;2023-09-19T13:06:35;3.55;;;1.65;;
16660;SDS011;8444;52.012;5.048;2023-09-19T13:09:08;5.05;;;0.90;;
16660;SDS011;8444;52.012;5.048;2023-09-19T13:11:38;6.57;;;1.15;;
16660;SDS011;8444;52.012;5.048;2023-09-19T13:20:05;5.53;;;1.27;;
16660;SDS011;8444;52.012;5.048;2023-09-19T13:25:03;4.70;;;0.90;;
16660;SDS011;8444;52.012;5.048;2023-09-19T13:27:29;3.90;;;1.00;;
16660;SDS011;8444;52.012;5.048;2023-09-19T13:29:54;2.38;;;0.95;;
16660;SDS011;8444;52.012;5.048;2023-09-19T13:32:19;4.73;;;0.93;;
16660;SDS011;8444;52.012;5.048;2023-09-19T13:34:44;4.78;;;1.30;;
16660;SDS011;8444;52.012;5.048;2023-09-19T13:37:09;5.18;;;1.20;;
16660;SDS011;8444;52.012;5.048;2023-09-19T13:39:35;3.75;;;1.50;;
16660;SDS011;8444;52.012;5.048;2023-09-19T13:42:01;2.50;;;0.90;;
16660;SDS011;8444;52.012;5.048;2023-09-19T13:44:28;6.13;;;1.02;;
16660;SDS011;8444;52.012;5.048;2023-09-19T13:46:55;4.80;;;1.00;;
16660;SDS011;8444;52.012;5.048;2023-09-19T13:49:20;2.83;;;0.98;;
16660;SDS011;8444;52.012;5.048;2023-09-19T13:51:46;4.32;;;1.63;;
16660;SDS011;8444;52.012;5.048;2023-09-19T13:54:11;6.50;;;1.10;;
16660;SDS011;8444;52.012;5.048;2023-09-19T13:56:37;5.10;;;1.30;;
16660;SDS011;8444;52.012;5.048;2023-09-19T13:59:03;6.70;;;1.02;;
16660;SDS011;8444;52.012;5.048;2023-09-19T14:01:28;3.28;;;1.00;;
16660;SDS011;8444;52.012;5.048;2023-09-19T14:03:53;1.98;;;0.88;;
16660;SDS011;8444;52.012;5.048;2023-09-19T14:06:21;3.20;;;1.17;;
16660;SDS011;8444;52.012;5.048;2023-09-19T14:08:47;4.28;;;1.40;;
16660;SDS011;8444;52.012;5.048;2023-09-19T14:11:13;3.10;;;1.08;;
16660;SDS011;8444;52.012;5.048;2023-09-19T14:13:39;2.63;;;1.40;;
16660;SDS011;8444;52.012;5.048;2023-09-19T14:16:05;3.63;;;2.03;;
16660;SDS011;8444;52.012;5.048;2023-09-19T14:18:31;4.78;;;1.30;;
16660;SDS011;8444;52.012;5.048;2023-09-19T14:20:56;3.67;;;1.30;;
16660;SDS011;8444;52.012;5.048;2023-09-19T14:23:21;5.95;;;1.15;;
16660;SDS011;8444;52.012;5.048;2023-09-19T14:25:48;4.88;;;1.42;;
16660;SDS011;8444;52.012;5.048;2023-09-19T14:28:13;3.60;;;1.40;;
16660;SDS011;8444;52.012;5.048;2023-09-19T14:30:38;4.10;;;1.63;;
16660;SDS011;8444;52.012;5.048;2023-09-19T14:33:04;7.35;;;1.67;;
16660;SDS011;8444;52.012;5.048;2023-09-19T14:35:29;3.30;;;1.60;;
16660;SDS011;8444;52.012;5.048;2023-09-19T14:37:55;5.80;;;1.85;;
16660;SDS011;8444;52.012;5.048;2023-09-19T14:40:20;7.07;;;1.40;;
16660;SDS011;8444;52.012;5.048;2023-09-19T14:42:47;8.85;;;2.22;;
16660;SDS011;8444;52.012;5.048;2023-09-19T14:45:13;5.70;;;1.65;;
16660;SDS011;8444;52.012;5.048;2023-09-19T14:47:41;6.35;;;1.90;;
16660;SDS011;8444;52.012;5.048;2023-09-19T14:50:07;5.00;;;1.30;;
16660;SDS011;8444;52.012;5.048;2023-09-19T14:52:32;5.82;;;2.03;;
16660;SDS011;8444;52.012;5.048;2023-09-19T14:54:58;2.67;;;0.90;;
16660;SDS011;8444;52.012;5.048;2023-09-19T14:57:24;7.78;;;1.83;;
16660;SDS011;8444;52.012;5.048;2023-09-19T14:59:49;6.22;;;1.50;;
16660;SDS011;8444;52.012;5.048;2023-09-19T15:02:15;4.78;;;1.50;;
16660;SDS011;8444;52.012;5.048;2023-09-19T15:04:41;4.47;;;1.75;;
16660;SDS011;8444;52.012;5.048;2023-09-19T15:07:11;3.60;;;1.55;;
16660;SDS011;8444;52.012;5.048;2023-09-19T15:09:37;7.72;;;1.60;;
16660;SDS011;8444;52.012;5.048;2023-09-19T15:12:02;4.93;;;1.30;;
16660;SDS011;8444;52.012;5.048;2023-09-19T15:14:28;3.92;;;1.02;;
16660;SDS011;8444;52.012;5.048;2023-09-19T15:16:54;7.97;;;1.70;;
16660;SDS011;8444;52.012;5.048;2023-09-19T15:19:20;5.50;;;1.73;;
16660;SDS011;8444;52.012;5.048;2023-09-19T15:21:47;3.92;;;1.67;;
16660;SDS011;8444;52.012;5.048;2023-09-19T15:24:12;8.07;;;1.50;;
16660;SDS011;8444;52.012;5.048;2023-09-19T15:26:38;5.75;;;1.38;;
16660;SDS011;8444;52.012;5.048;2023-09-19T15:29:08;4.13;;;1.33;;
16660;SDS011;8444;52.012;5.048;2023-09-19T15:31:34;8.95;;;1.55;;
16660;SDS011;8444;52.012;5.048;2023-09-19T15:34:01;1.88;;;1.10;;
16660;SDS011;8444;52.012;5.048;2023-09-19T15:36:26;7.28;;;1.80;;
16660;SDS011;8444;52.012;5.048;2023-09-19T15:38:58;3.22;;;1.48;;
16660;SDS011;8444;52.012;5.048;2023-09-19T15:41:28;9.15;;;1.33;;
16660;SDS011;8444;52.012;5.048;2023-09-19T15:43:54;4.32;;;1.40;;
16660;SDS011;8444;52.012;5.048;2023-09-19T15:46:20;3.88;;;1.23;;
16660;SDS011;8444;52.012;5.048;2023-09-19T15:48:45;6.28;;;1.70;;
16660;SDS011;8444;52.012;5.048;2023-09-19T15:51:11;6.15;;;1.50;;
16660;SDS011;8444;52.012;5.048;2023-09-19T15:53:49;5.60;;;2.40;;
16660;SDS011;8444;52.012;5.048;2023-09-19T15:56:15;4.68;;;2.65;;
16660;SDS011;8444;52.012;5.048;2023-09-19T15:58:43;3.28;;;1.50;;
16660;SDS011;8444;52.012;5.048;2023-09-19T16:01:08;7.20;;;1.85;;
16660;SDS011;8444;52.012;5.048;2023-09-19T16:03:34;5.28;;;1.50;;
16660;SDS011;8444;52.012;5.048;2023-09-19T16:06:00;4.70;;;1.63;;
16660;SDS011;8444;52.012;5.048;2023-09-19T16:08:25;3.75;;;1.88;;
16660;SDS011;8444;52.012;5.048;2023-09-19T16:10:52;6.00;;;1.58;;